sensor_id;sensor_type;location;lat;lon;timestamp;pressure;altitude;pressure_sealevel;temperature;humidity
80892;BME280;70343;51.530;5.050;2024-03-08T00:01:06;101699.06;;;4.25;100.00
80892;BME280;70343;51.530;5.050;2024-03-08T00:03:32;101694.25;;;4.20;100.00
80892;BME280;70343;51.530;5.050;2024-03-08T00:05:59;101690.03;;;4.19;100.00
80892;BME280;70343;51.530;5.050;2024-03-08T00:08:24;101685.97;;;4.17;100.00
80892;BME280;70343;51.530;5.050;2024-03-08T00:10:50;101687.72;;;4.16;100.00
80892;BME280;70343;51.530;5.050;2024-03-08T00:13:16;101683.38;;;4.17;100.00
80892;BME280;70343;51.530;5.050;2024-03-08T00:15:41;101680.09;;;4.15;100.00
80892;BME280;70343;51.530;5.050;2024-03-08T00:18:07;101685.22;;;4.05;100.00
80892;BME280;70343;51.530;5.050;2024-03-08T00:20:32;101678.72;;;4.11;100.00
80892;BME280;70343;51.530;5.050;2024-03-08T00:22:58;101677.00;;;4.00;100.00
80892;BME280;70343;51.530;5.050;2024-03-08T00:25:24;101678.78;;;4.00;100.00
80892;BME280;70343;51.530;5.050;2024-03-08T00:27:50;101674.97;;;4.04;100.00
80892;BME280;70343;51.530;5.050;2024-03-08T00:30:15;101674.31;;;4.02;100.00
80892;BME280;70343;51.530;5.050;2024-03-08T00:32:41;101662.63;;;3.98;100.00
80892;BME280;70343;51.530;5.050;2024-03-08T00:35:07;101671.56;;;3.94;100.00
80892;BME280;70343;51.530;5.050;2024-03-08T00:37:33;101668.50;;;3.89;100.00
80892;BME280;70343;51.530;5.050;2024-03-08T00:40:00;101664.44;;;3.86;100.00
80892;BME280;70343;51.530;5.050;2024-03-08T00:42:25;101664.19;;;3.89;100.00
80892;BME280;70343;51.530;5.050;2024-03-08T00:44:51;101660.56;;;3.81;100.00
80892;BME280;70343;51.530;5.050;2024-03-08T00:47:17;101664.13;;;3.80;100.00
80892;BME280;70343;51.530;5.050;2024-03-08T00:49:42;101664.13;;;3.80;100.00
80892;BME280;70343;51.530;5.050;2024-03-08T00:52:08;101657.31;;;3.79;100.00
80892;BME280;70343;51.530;5.050;2024-03-08T00:54:34;101661.19;;;3.73;100.00
80892;BME280;70343;51.530;5.050;2024-03-08T00:57:01;101651.00;;;3.72;100.00
80892;BME280;70343;51.530;5.050;2024-03-08T00:59:31;101651.72;;;3.74;100.00
80892;BME280;70343;51.530;5.050;2024-03-08T01:02:00;101646.13;;;3.69;100.00
80892;BME280;70343;51.530;5.050;2024-03-08T01:04:26;101649.25;;;3.72;100.00
80892;BME280;70343;51.530;5.050;2024-03-08T01:06:57;101636.31;;;3.63;100.00
80892;BME280;70343;51.530;5.050;2024-03-08T01:09:24;101643.91;;;3.64;100.00
80892;BME280;70343;51.530;5.050;2024-03-08T01:11:49;101636.41;;;3.61;100.00
80892;BME280;70343;51.530;5.050;2024-03-08T01:14:16;101645.53;;;3.65;100.00
80892;BME280;70343;51.530;5.050;2024-03-08T01:16:41;101631.16;;;3.63;100.00
80892;BME280;70343;51.530;5.050;2024-03-08T01:19:07;101628.94;;;3.58;100.00
80892;BME280;70343;51.530;5.050;2024-03-08T01:21:32;101629.56;;;3.50;100.00
80892;BME280;70343;51.530;5.050;2024-03-08T01:23:58;101625.44;;;3.48;100.00
80892;BME280;70343;51.530;5.050;2024-03-08T01:26:23;101610.94;;;3.47;100.00
80892;BME280;70343;51.530;5.050;2024-03-08T01:28:49;101618.53;;;3.48;100.00
80892;BME280;70343;51.530;5.050;2024-03-08T01:31:15;101605.72;;;3.37;100.00
80892;BME280;70343;51.530;5.050;2024-03-08T01:33:41;101608.28;;;3.37;100.00
80892;BME280;70343;51.530;5.050;2024-03-08T01:36:07;101614.81;;;3.41;100.00
80892;BME280;70343;51.530;5.050;2024-03-08T01:38:32;101608.94;;;3.39;100.00
80892;BME280;70343;51.530;5.050;2024-03-08T01:40:59;101613.19;;;3.40;100.00
80892;BME280;70343;51.530;5.050;2024-03-08T01:43:28;101609.22;;;3.36;100.00
80892;BME280;70343;51.530;5.050;2024-03-08T01:45:58;101610.59;;;3.40;100.00
80892;BME280;70343;51.530;5.050;2024-03-08T01:48:30;101600.78;;;3.34;100.00
80892;BME280;70343;51.530;5.050;2024-03-08T01:50:57;101602.44;;;3.35;100.00
80892;BME280;70343;51.530;5.050;2024-03-08T01:53:24;101603.50;;;3.33;100.00
80892;BME280;70343;51.530;5.050;2024-03-08T01:55:53;101588.84;;;3.33;100.00
80892;BME280;70343;51.530;5.050;2024-03-08T01:58:20;101587.94;;;3.23;100.00
80892;BME280;70343;51.530;5.050;2024-03-08T02:00:48;101577.88;;;3.20;100.00
80892;BME280;70343;51.530;5.050;2024-03-08T02:03:17;101579.66;;;3.20;100.00
80892;BME280;70343;51.530;5.050;2024-03-08T02:05:42;101579.75;;;3.18;100.00
80892;BME280;70343;51.530;5.050;2024-03-08T02:08:11;101584.91;;;3.18;100.00
80892;BME280;70343;51.530;5.050;2024-03-08T02:10:43;101579.31;;;3.13;100.00
80892;BME280;70343;51.530;5.050;2024-03-08T02:13:09;101575.09;;;3.12;100.00
80892;BME280;70343;51.530;5.050;2024-03-08T02:15:55;101567.19;;;3.04;100.00
80892;BME280;70343;51.530;5.050;2024-03-08T02:18:21;101564.59;;;3.04;100.00
80892;BME280;70343;51.530;5.050;2024-03-08T02:21:00;101570.69;;;3.03;100.00
80892;BME280;70343;51.530;5.050;2024-03-08T02:23:26;101562.53;;;2.98;100.00
80892;BME280;70343;51.530;5.050;2024-03-08T02:25:53;101557.47;;;2.97;100.00
80892;BME280;70343;51.530;5.050;2024-03-08T02:28:19;101556.28;;;3.01;100.00
80892;BME280;70343;51.530;5.050;2024-03-08T02:30:51;101544.97;;;2.92;100.00
80892;BME280;70343;51.530;5.050;2024-03-08T02:33:20;101549.16;;;2.93;100.00
80892;BME280;70343;51.530;5.050;2024-03-08T02:35:46;101545.91;;;2.91;100.00
80892;BME280;70343;51.530;5.050;2024-03-08T02:38:13;101541.00;;;2.88;100.00
80892;BME280;70343;51.530;5.050;2024-03-08T02:40:42;101540.19;;;2.88;100.00
80892;BME280;70343;51.530;5.050;2024-03-08T02:43:09;101533.28;;;2.88;100.00
80892;BME280;70343;51.530;5.050;2024-03-08T02:45:35;101535.28;;;2.85;100.00
80892;BME280;70343;51.530;5.050;2024-03-08T02:48:00;101527.44;;;2.86;100.00
80892;BME280;70343;51.530;5.050;2024-03-08T02:50:26;101530.94;;;2.85;100.00
80892;BME280;70343;51.530;5.050;2024-03-08T02:52:51;101520.75;;;2.84;100.00
80892;BME280;70343;51.530;5.050;2024-03-08T02:55:18;101511.63;;;2.80;100.00
80892;BME280;70343;51.530;5.050;2024-03-08T02:57:43;101508.22;;;2.79;100.00
80892;BME280;70343;51.530;5.050;2024-03-08T03:00:10;101509.69;;;2.72;100.00
80892;BME280;70343;51.530;5.050;2024-03-08T03:02:36;101504.03;;;2.78;100.00
80892;BME280;70343;51.530;5.050;2024-03-08T03:05:03;101505.91;;;2.76;100.00
80892;BME280;70343;51.530;5.050;2024-03-08T03:07:32;101499.72;;;2.79;100.00
80892;BME280;70343;51.530;5.050;2024-03-08T03:09:59;101501.81;;;2.73;100.00
80892;BME280;70343;51.530;5.050;2024-03-08T03:12:27;101492.84;;;2.68;100.00
80892;BME280;70343;51.530;5.050;2024-03-08T03:14:52;101487.69;;;2.68;100.00
80892;BME280;70343;51.530;5.050;2024-03-08T03:17:18;101496.38;;;2.67;100.00
80892;BME280;70343;51.530;5.050;2024-03-08T03:19:45;101493.88;;;2.65;100.00
80892;BME280;70343;51.530;5.050;2024-03-08T03:22:12;101491.00;;;2.59;100.00
80892;BME280;70343;51.530;5.050;2024-03-08T03:24:38;101482.78;;;2.65;100.00
80892;BME280;70343;51.530;5.050;2024-03-08T03:27:04;101488.56;;;2.57;100.00
80892;BME280;70343;51.530;5.050;2024-03-08T03:29:43;101490.78;;;2.51;100.00
80892;BME280;70343;51.530;5.050;2024-03-08T03:32:13;101487.16;;;2.53;100.00
80892;BME280;70343;51.530;5.050;2024-03-08T03:34:39;101486.69;;;2.48;100.00
80892;BME280;70343;51.530;5.050;2024-03-08T03:37:06;101487.72;;;2.46;100.00
80892;BME280;70343;51.530;5.050;2024-03-08T03:39:38;101481.53;;;2.48;100.00
80892;BME280;70343;51.530;5.050;2024-03-08T03:42:22;101477.94;;;2.40;100.00
80892;BME280;70343;51.530;5.050;2024-03-08T03:44:49;101481.19;;;2.42;100.00
80892;BME280;70343;51.530;5.050;2024-03-08T03:47:15;101485.66;;;2.40;100.00
80892;BME280;70343;51.530;5.050;2024-03-08T03:49:41;101471.88;;;2.30;100.00
80892;BME280;70343;51.530;5.050;2024-03-08T03:52:08;101473.84;;;2.37;100.00
80892;BME280;70343;51.530;5.050;2024-03-08T03:54:34;101477.03;;;2.30;100.00
80892;BME280;70343;51.530;5.050;2024-03-08T03:56:59;101467.06;;;2.36;100.00
80892;BME280;70343;51.530;5.050;2024-03-08T03:59:26;101476.06;;;2.31;100.00
80892;BME280;70343;51.530;5.050;2024-03-08T04:01:53;101476.78;;;2.33;100.00
80892;BME280;70343;51.530;5.050;2024-03-08T04:04:18;101474.91;;;2.35;100.00
80892;BME280;70343;51.530;5.050;2024-03-08T04:06:44;101467.91;;;2.26;100.00
80892;BME280;70343;51.530;5.050;2024-03-08T04:09:10;101472.22;;;2.25;100.00
80892;BME280;70343;51.530;5.050;2024-03-08T04:11:36;101468.13;;;2.23;100.00
80892;BME280;70343;51.530;5.050;2024-03-08T04:14:02;101465.34;;;2.26;100.00
80892;BME280;70343;51.530;5.050;2024-03-08T04:16:27;101456.91;;;2.24;100.00
80892;BME280;70343;51.530;5.050;2024-03-08T04:18:53;101458.94;;;2.20;100.00
80892;BME280;70343;51.530;5.050;2024-03-08T04:21:18;101458.94;;;2.20;100.00
80892;BME280;70343;51.530;5.050;2024-03-08T04:23:45;101450.84;;;2.14;100.00
80892;BME280;70343;51.530;5.050;2024-03-08T04:26:11;101450.84;;;2.14;100.00
80892;BME280;70343;51.530;5.050;2024-03-08T04:28:36;101441.63;;;2.11;100.00
80892;BME280;70343;51.530;5.050;2024-03-08T04:31:03;101441.50;;;2.13;100.00
80892;BME280;70343;51.530;5.050;2024-03-08T04:33:29;101440.78;;;2.11;100.00
80892;BME280;70343;51.530;5.050;2024-03-08T04:35:55;101447.94;;;2.07;100.00
80892;BME280;70343;51.530;5.050;2024-03-08T04:38:21;101441.50;;;2.02;100.00
80892;BME280;70343;51.530;5.050;2024-03-08T04:40:47;101441.16;;;2.06;100.00
80892;BME280;70343;51.530;5.050;2024-03-08T04:43:12;101441.84;;;1.97;100.00
80892;BME280;70343;51.530;5.050;2024-03-08T04:45:39;101432.66;;;1.95;100.00
80892;BME280;70343;51.530;5.050;2024-03-08T04:48:05;101428.31;;;2.06;100.00
80892;BME280;70343;51.530;5.050;2024-03-08T04:50:31;101429.59;;;2.01;100.00
80892;BME280;70343;51.530;5.050;2024-03-08T04:52:56;101432.88;;;2.03;100.00
80892;BME280;70343;51.530;5.050;2024-03-08T04:55:22;101423.06;;;1.97;100.00
80892;BME280;70343;51.530;5.050;2024-03-08T04:57:48;101425.16;;;1.92;100.00
80892;BME280;70343;51.530;5.050;2024-03-08T05:00:14;101424.38;;;1.91;100.00
80892;BME280;70343;51.530;5.050;2024-03-08T05:02:40;101425.63;;;1.97;100.00
80892;BME280;70343;51.530;5.050;2024-03-08T05:05:07;101414.66;;;1.95;100.00
80892;BME280;70343;51.530;5.050;2024-03-08T05:07:34;101418.16;;;1.94;100.00
80892;BME280;70343;51.530;5.050;2024-03-08T05:10:00;101407.28;;;1.90;100.00
80892;BME280;70343;51.530;5.050;2024-03-08T05:12:27;101420.47;;;1.86;100.00
80892;BME280;70343;51.530;5.050;2024-03-08T05:14:53;101412.69;;;1.87;100.00
80892;BME280;70343;51.530;5.050;2024-03-08T05:17:19;101410.91;;;1.88;100.00
80892;BME280;70343;51.530;5.050;2024-03-08T05:19:45;101419.44;;;1.88;100.00
80892;BME280;70343;51.530;5.050;2024-03-08T05:22:10;101404.84;;;1.89;100.00
80892;BME280;70343;51.530;5.050;2024-03-08T05:24:36;101403.19;;;1.88;100.00
80892;BME280;70343;51.530;5.050;2024-03-08T05:27:02;101411.59;;;1.90;100.00
80892;BME280;70343;51.530;5.050;2024-03-08T05:29:29;101405.06;;;1.86;100.00
80892;BME280;70343;51.530;5.050;2024-03-08T05:31:55;101407.63;;;1.86;100.00
80892;BME280;70343;51.530;5.050;2024-03-08T05:34:22;101411.28;;;1.83;100.00
80892;BME280;70343;51.530;5.050;2024-03-08T05:36:48;101410.56;;;1.81;100.00
80892;BME280;70343;51.530;5.050;2024-03-08T05:39:19;101407.19;;;1.80;100.00
80892;BME280;70343;51.530;5.050;2024-03-08T05:41:47;101403.22;;;1.76;100.00
80892;BME280;70343;51.530;5.050;2024-03-08T05:44:13;101400.16;;;1.83;100.00
80892;BME280;70343;51.530;5.050;2024-03-08T05:46:39;101390.59;;;1.85;100.00
80892;BME280;70343;51.530;5.050;2024-03-08T05:49:06;101393.97;;;1.74;100.00
80892;BME280;70343;51.530;5.050;2024-03-08T05:51:36;101393.19;;;1.73;100.00
80892;BME280;70343;51.530;5.050;2024-03-08T05:54:02;101394.09;;;1.72;100.00
80892;BME280;70343;51.530;5.050;2024-03-08T05:56:32;101376.94;;;1.73;100.00
80892;BME280;70343;51.530;5.050;2024-03-08T05:58:58;101384.16;;;1.79;100.00
80892;BME280;70343;51.530;5.050;2024-03-08T06:01:24;101376.94;;;1.73;100.00
80892;BME280;70343;51.530;5.050;2024-03-08T06:03:50;101383.59;;;1.75;100.00
80892;BME280;70343;51.530;5.050;2024-03-08T06:06:16;101384.75;;;1.71;100.00
80892;BME280;70343;51.530;5.050;2024-03-08T06:08:43;101383.81;;;1.72;100.00
80892;BME280;70343;51.530;5.050;2024-03-08T06:11:09;101390.81;;;1.70;100.00
80892;BME280;70343;51.530;5.050;2024-03-08T06:13:35;101381.13;;;1.74;100.00
80892;BME280;70343;51.530;5.050;2024-03-08T06:16:01;101375.66;;;1.67;100.00
80892;BME280;70343;51.530;5.050;2024-03-08T06:18:32;101373.19;;;1.66;100.00
80892;BME280;70343;51.530;5.050;2024-03-08T06:20:58;101371.91;;;1.60;100.00
80892;BME280;70343;51.530;5.050;2024-03-08T06:23:23;101361.84;;;1.68;100.00
80892;BME280;70343;51.530;5.050;2024-03-08T06:25:49;101357.28;;;1.72;100.00
80892;BME280;70343;51.530;5.050;2024-03-08T06:28:14;101359.97;;;1.70;100.00
80892;BME280;70343;51.530;5.050;2024-03-08T06:30:40;101364.28;;;1.70;100.00
80892;BME280;70343;51.530;5.050;2024-03-08T06:33:06;101363.03;;;1.75;100.00
80892;BME280;70343;51.530;5.050;2024-03-08T06:35:32;101364.31;;;1.81;100.00
80892;BME280;70343;51.530;5.050;2024-03-08T06:38:01;101367.91;;;1.78;100.00
80892;BME280;70343;51.530;5.050;2024-03-08T06:40:26;101354.50;;;1.75;100.00
80892;BME280;70343;51.530;5.050;2024-03-08T06:42:52;101351.66;;;1.78;100.00
80892;BME280;70343;51.530;5.050;2024-03-08T06:45:17;101349.44;;;1.85;100.00
80892;BME280;70343;51.530;5.050;2024-03-08T06:47:46;101348.00;;;1.92;100.00
80892;BME280;70343;51.530;5.050;2024-03-08T06:50:12;101349.66;;;1.93;100.00
80892;BME280;70343;51.530;5.050;2024-03-08T06:52:38;101354.31;;;1.99;100.00
80892;BME280;70343;51.530;5.050;2024-03-08T06:55:04;101351.38;;;2.03;100.00
80892;BME280;70343;51.530;5.050;2024-03-08T06:57:31;101350.09;;;2.09;100.00
80892;BME280;70343;51.530;5.050;2024-03-08T06:59:57;101341.75;;;2.16;100.00
80892;BME280;70343;51.530;5.050;2024-03-08T07:02:23;101339.41;;;2.24;100.00
80892;BME280;70343;51.530;5.050;2024-03-08T07:04:51;101350.69;;;2.33;100.00
80892;BME280;70343;51.530;5.050;2024-03-08T07:07:18;101352.91;;;2.37;100.00
80892;BME280;70343;51.530;5.050;2024-03-08T07:09:45;101347.97;;;2.45;100.00
80892;BME280;70343;51.530;5.050;2024-03-08T07:12:11;101336.34;;;2.51;100.00
80892;BME280;70343;51.530;5.050;2024-03-08T07:14:38;101341.50;;;2.51;100.00
80892;BME280;70343;51.530;5.050;2024-03-08T07:17:07;101339.69;;;2.62;100.00
80892;BME280;70343;51.530;5.050;2024-03-08T07:19:37;101328.06;;;2.68;100.00
80892;BME280;70343;51.530;5.050;2024-03-08T07:22:04;101337.84;;;2.74;100.00
80892;BME280;70343;51.530;5.050;2024-03-08T07:24:30;101326.09;;;2.81;100.00
80892;BME280;70343;51.530;5.050;2024-03-08T07:26:58;101331.28;;;2.91;100.00
80892;BME280;70343;51.530;5.050;2024-03-08T07:29:24;101327.69;;;3.03;100.00
80892;BME280;70343;51.530;5.050;2024-03-08T07:31:50;101336.13;;;3.05;100.00
80892;BME280;70343;51.530;5.050;2024-03-08T07:34:21;101331.69;;;3.16;100.00
80892;BME280;70343;51.530;5.050;2024-03-08T07:36:47;101333.75;;;3.22;100.00
80892;BME280;70343;51.530;5.050;2024-03-08T07:39:13;101329.47;;;3.32;100.00
80892;BME280;70343;51.530;5.050;2024-03-08T07:41:39;101328.25;;;3.36;100.00
80892;BME280;70343;51.530;5.050;2024-03-08T07:44:07;101325.56;;;3.47;100.00
80892;BME280;70343;51.530;5.050;2024-03-08T07:46:33;101310.81;;;3.59;100.00
80892;BME280;70343;51.530;5.050;2024-03-08T07:49:02;101314.66;;;3.65;100.00
80892;BME280;70343;51.530;5.050;2024-03-08T07:51:28;101315.75;;;3.72;100.00
80892;BME280;70343;51.530;5.050;2024-03-08T07:53:54;101316.31;;;3.85;100.00
80892;BME280;70343;51.530;5.050;2024-03-08T07:56:20;101311.81;;;3.87;100.00
80892;BME280;70343;51.530;5.050;2024-03-08T07:58:47;101316.31;;;3.94;100.00
80892;BME280;70343;51.530;5.050;2024-03-08T08:01:17;101304.38;;;4.03;100.00
80892;BME280;70343;51.530;5.050;2024-03-08T08:03:43;101297.03;;;4.08;100.00
80892;BME280;70343;51.530;5.050;2024-03-08T08:06:08;101298.13;;;4.15;100.00
80892;BME280;70343;51.530;5.050;2024-03-08T08:08:35;101295.00;;;4.21;100.00
80892;BME280;70343;51.530;5.050;2024-03-08T08:11:00;101292.81;;;4.26;100.00
80892;BME280;70343;51.530;5.050;2024-03-08T08:13:27;101289.41;;;4.35;100.00
80892;BME280;70343;51.530;5.050;2024-03-08T08:15:58;101293.63;;;4.45;100.00
80892;BME280;70343;51.530;5.050;2024-03-08T08:18:24;101292.25;;;4.51;100.00
80892;BME280;70343;51.530;5.050;2024-03-08T08:20:51;101280.16;;;4.61;100.00
80892;BME280;70343;51.530;5.050;2024-03-08T08:23:18;101282.84;;;4.69;100.00
80892;BME280;70343;51.530;5.050;2024-03-08T08:25:45;101265.97;;;4.75;100.00
80892;BME280;70343;51.530;5.050;2024-03-08T08:28:11;101267.16;;;4.80;100.00
80892;BME280;70343;51.530;5.050;2024-03-08T08:30:38;101279.78;;;4.93;100.00
80892;BME280;70343;51.530;5.050;2024-03-08T08:33:04;101269.16;;;4.96;100.00
80892;BME280;70343;51.530;5.050;2024-03-08T08:35:31;101262.13;;;5.15;100.00
80892;BME280;70343;51.530;5.050;2024-03-08T08:37:57;101263.22;;;5.22;100.00
80892;BME280;70343;51.530;5.050;2024-03-08T08:40:24;101258.41;;;5.27;98.36
80892;BME280;70343;51.530;5.050;2024-03-08T08:42:51;101256.84;;;5.34;99.50
80892;BME280;70343;51.530;5.050;2024-03-08T08:45:18;101249.81;;;5.54;98.81
80892;BME280;70343;51.530;5.050;2024-03-08T08:47:44;101249.16;;;5.70;96.21
80892;BME280;70343;51.530;5.050;2024-03-08T08:50:10;101255.66;;;5.74;98.16
80892;BME280;70343;51.530;5.050;2024-03-08T08:52:39;101249.56;;;5.92;96.74
80892;BME280;70343;51.530;5.050;2024-03-08T08:55:05;101249.09;;;5.97;94.77
80892;BME280;70343;51.530;5.050;2024-03-08T08:57:32;101240.75;;;6.03;94.58
80892;BME280;70343;51.530;5.050;2024-03-08T08:59:59;101234.69;;;6.12;95.10
80892;BME280;70343;51.530;5.050;2024-03-08T09:02:25;101233.84;;;6.29;92.86
80892;BME280;70343;51.530;5.050;2024-03-08T09:04:51;101230.75;;;6.25;92.41
80892;BME280;70343;51.530;5.050;2024-03-08T09:07:17;101218.19;;;6.39;93.55
80892;BME280;70343;51.530;5.050;2024-03-08T09:09:44;101216.22;;;6.58;90.87
80892;BME280;70343;51.530;5.050;2024-03-08T09:12:10;101215.28;;;6.67;89.99
80892;BME280;70343;51.530;5.050;2024-03-08T09:14:41;101215.31;;;6.75;90.27
80892;BME280;70343;51.530;5.050;2024-03-08T09:17:07;101214.09;;;6.87;87.68
80892;BME280;70343;51.530;5.050;2024-03-08T09:19:35;101205.03;;;6.91;88.23
80892;BME280;70343;51.530;5.050;2024-03-08T09:22:03;101199.19;;;6.89;87.63
80892;BME280;70343;51.530;5.050;2024-03-08T09:24:29;101199.06;;;6.99;86.42
80892;BME280;70343;51.530;5.050;2024-03-08T09:26:56;101197.78;;;7.03;86.62
80892;BME280;70343;51.530;5.050;2024-03-08T09:29:24;101192.31;;;7.06;84.24
80892;BME280;70343;51.530;5.050;2024-03-08T09:31:50;101178.84;;;7.10;85.73
80892;BME280;70343;51.530;5.050;2024-03-08T09:34:15;101174.16;;;7.06;85.86
80892;BME280;70343;51.530;5.050;2024-03-08T09:36:41;101162.66;;;7.16;85.48
80892;BME280;70343;51.530;5.050;2024-03-08T09:39:07;101161.22;;;7.22;85.84
80892;BME280;70343;51.530;5.050;2024-03-08T09:41:33;101160.28;;;7.31;83.71
80892;BME280;70343;51.530;5.050;2024-03-08T09:44:00;101151.03;;;7.37;83.37
80892;BME280;70343;51.530;5.050;2024-03-08T09:46:26;101136.78;;;7.41;82.94
80892;BME280;70343;51.530;5.050;2024-03-08T09:48:55;101135.63;;;7.43;83.02
80892;BME280;70343;51.530;5.050;2024-03-08T09:51:27;101125.75;;;7.47;82.16
80892;BME280;70343;51.530;5.050;2024-03-08T09:53:53;101133.22;;;7.74;81.98
80892;BME280;70343;51.530;5.050;2024-03-08T09:56:23;101121.03;;;7.82;81.54
80892;BME280;70343;51.530;5.050;2024-03-08T09:58:49;101109.53;;;7.85;80.66
80892;BME280;70343;51.530;5.050;2024-03-08T10:01:43;101114.72;;;7.85;78.94
80892;BME280;70343;51.530;5.050;2024-03-08T10:04:09;101102.19;;;7.96;79.12
80892;BME280;70343;51.530;5.050;2024-03-08T10:06:35;101107.38;;;8.13;78.97
80892;BME280;70343;51.530;5.050;2024-03-08T10:09:02;101095.03;;;8.06;78.18
80892;BME280;70343;51.530;5.050;2024-03-08T10:11:27;101089.16;;;8.21;77.64
80892;BME280;70343;51.530;5.050;2024-03-08T10:13:54;101087.31;;;8.45;77.34
80892;BME280;70343;51.530;5.050;2024-03-08T10:16:19;101085.84;;;8.43;75.50
80892;BME280;70343;51.530;5.050;2024-03-08T10:18:46;101081.69;;;8.64;74.85
80892;BME280;70343;51.530;5.050;2024-03-08T10:21:11;101068.44;;;8.51;75.57
80892;BME280;70343;51.530;5.050;2024-03-08T10:23:39;101063.81;;;8.69;75.27
80892;BME280;70343;51.530;5.050;2024-03-08T10:26:11;101061.63;;;8.81;74.22
80892;BME280;70343;51.530;5.050;2024-03-08T10:28:47;101059.31;;;8.86;74.13
80892;BME280;70343;51.530;5.050;2024-03-08T10:31:13;101054.44;;;8.91;72.35
80892;BME280;70343;51.530;5.050;2024-03-08T10:33:40;101054.88;;;8.94;72.40
80892;BME280;70343;51.530;5.050;2024-03-08T10:36:10;101045.09;;;9.19;70.36
80892;BME280;70343;51.530;5.050;2024-03-08T10:38:37;101046.13;;;9.33;69.09
80892;BME280;70343;51.530;5.050;2024-03-08T10:41:08;101061.88;;;9.39;70.21
80892;BME280;70343;51.530;5.050;2024-03-08T10:44:23;101036.50;;;9.56;69.53
80892;BME280;70343;51.530;5.050;2024-03-08T10:47:01;101024.81;;;9.52;68.88
80892;BME280;70343;51.530;5.050;2024-03-08T10:50:18;101011.47;;;9.69;66.85
80892;BME280;70343;51.530;5.050;2024-03-08T10:52:50;101025.75;;;9.73;65.51
80892;BME280;70343;51.530;5.050;2024-03-08T10:55:19;101027.25;;;9.68;65.60
80892;BME280;70343;51.530;5.050;2024-03-08T10:57:48;101017.59;;;9.76;66.33
80892;BME280;70343;51.530;5.050;2024-03-08T11:00:14;101008.06;;;9.83;65.86
80892;BME280;70343;51.530;5.050;2024-03-08T11:02:45;101000.59;;;9.95;66.25
80892;BME280;70343;51.530;5.050;2024-03-08T11:05:42;101013.00;;;10.08;65.66
80892;BME280;70343;51.530;5.050;2024-03-08T11:08:17;100995.50;;;10.16;65.53
80892;BME280;70343;51.530;5.050;2024-03-08T11:10:50;101010.59;;;10.21;63.49
80892;BME280;70343;51.530;5.050;2024-03-08T11:13:38;100990.19;;;10.24;63.42
80892;BME280;70343;51.530;5.050;2024-03-08T11:19:01;100989.31;;;10.17;62.61
80892;BME280;70343;51.530;5.050;2024-03-08T11:21:31;100981.91;;;10.35;62.43
80892;BME280;70343;51.530;5.050;2024-03-08T11:24:11;100975.78;;;10.28;60.80
80892;BME280;70343;51.530;5.050;2024-03-08T11:26:39;100993.59;;;10.39;61.77
80892;BME280;70343;51.530;5.050;2024-03-08T11:34:42;100955.84;;;10.77;60.08
80892;BME280;70343;51.530;5.050;2024-03-08T11:37:13;100966.78;;;10.88;58.42
80892;BME280;70343;51.530;5.050;2024-03-08T11:39:40;100970.38;;;10.87;57.60
80892;BME280;70343;51.530;5.050;2024-03-08T11:42:06;100957.16;;;10.88;57.39
80892;BME280;70343;51.530;5.050;2024-03-08T11:44:32;100957.81;;;10.97;57.68
80892;BME280;70343;51.530;5.050;2024-03-08T11:46:57;100950.50;;;10.86;58.00
80892;BME280;70343;51.530;5.050;2024-03-08T11:49:23;100942.59;;;11.00;57.66
80892;BME280;70343;51.530;5.050;2024-03-08T11:51:52;100932.75;;;10.96;57.54
80892;BME280;70343;51.530;5.050;2024-03-08T11:54:19;100945.75;;;11.17;56.09
80892;BME280;70343;51.530;5.050;2024-03-08T11:56:45;100941.75;;;11.21;56.29
80892;BME280;70343;51.530;5.050;2024-03-08T11:59:13;100942.53;;;11.15;55.78
80892;BME280;70343;51.530;5.050;2024-03-08T12:01:40;100943.03;;;11.04;55.42
80892;BME280;70343;51.530;5.050;2024-03-08T12:04:05;100932.50;;;11.18;55.41
80892;BME280;70343;51.530;5.050;2024-03-08T12:06:38;100933.66;;;11.09;54.75
80892;BME280;70343;51.530;5.050;2024-03-08T12:09:12;100932.09;;;11.15;54.85
80892;BME280;70343;51.530;5.050;2024-03-08T12:11:38;100927.47;;;11.17;54.84
80892;BME280;70343;51.530;5.050;2024-03-08T12:14:04;100929.06;;;11.11;54.70
80892;BME280;70343;51.530;5.050;2024-03-08T12:16:32;100926.31;;;11.19;54.95
80892;BME280;70343;51.530;5.050;2024-03-08T12:18:57;100907.91;;;11.34;55.07
80892;BME280;70343;51.530;5.050;2024-03-08T12:21:26;100896.69;;;11.40;54.87
80892;BME280;70343;51.530;5.050;2024-03-08T12:24:06;100900.75;;;11.42;54.41
80892;BME280;70343;51.530;5.050;2024-03-08T12:26:37;100892.78;;;11.57;54.08
80892;BME280;70343;51.530;5.050;2024-03-08T12:29:20;100896.50;;;11.41;55.08
80892;BME280;70343;51.530;5.050;2024-03-08T12:31:51;100898.59;;;11.52;54.91
80892;BME280;70343;51.530;5.050;2024-03-08T12:34:20;100894.69;;;11.70;54.51
80892;BME280;70343;51.530;5.050;2024-03-08T12:36:51;100890.31;;;11.83;54.33
80892;BME280;70343;51.530;5.050;2024-03-08T12:39:20;100881.13;;;12.00;54.02
80892;BME280;70343;51.530;5.050;2024-03-08T12:41:56;100876.94;;;12.12;54.98
80892;BME280;70343;51.530;5.050;2024-03-08T12:44:25;100871.25;;;11.96;55.23
80892;BME280;70343;51.530;5.050;2024-03-08T12:46:51;100861.00;;;11.94;54.75
80892;BME280;70343;51.530;5.050;2024-03-08T12:49:19;100867.47;;;12.11;54.16
80892;BME280;70343;51.530;5.050;2024-03-08T12:51:48;100858.38;;;11.94;54.03
80892;BME280;70343;51.530;5.050;2024-03-08T12:54:14;100864.25;;;12.09;53.08
80892;BME280;70343;51.530;5.050;2024-03-08T12:56:40;100846.97;;;12.08;53.29
80892;BME280;70343;51.530;5.050;2024-03-08T12:59:09;100849.59;;;12.08;51.92
80892;BME280;70343;51.530;5.050;2024-03-08T13:01:35;100838.09;;;12.09;51.65
80892;BME280;70343;51.530;5.050;2024-03-08T13:04:05;100844.19;;;12.16;52.71